createdAt,value
2017-08-11T00:00:35.350Z,94.54
2017-08-11T00:01:15.774Z,94.89
2017-08-11T00:01:56.178Z,95.03
2017-08-11T00:02:36.605Z,95.26
2017-08-11T00:03:16.952Z,94.69
2017-08-11T00:03:57.335Z,95.51
2017-08-11T00:04:37.746Z,94.4
2017-08-11T00:05:18.151Z,94.54
2017-08-11T00:05:58.539Z,94.26
2017-08-11T00:06:38.961Z,94.64
2017-08-11T00:07:19.391Z,94.35
2017-08-11T00:07:59.779Z,93.88
2017-08-11T00:08:40.179Z,94.45
2017-08-11T00:09:20.599Z,93.97
2017-08-11T00:10:00.990Z,94.07
2017-08-11T00:10:41.407Z,93.88
2017-08-11T00:11:21.763Z,94.26
2017-08-11T00:12:02.167Z,94.26
2017-08-11T00:12:42.539Z,93.88
2017-08-11T00:13:22.990Z,92.91
2017-08-11T00:14:03.372Z,93.59
2017-08-11T00:14:43.779Z,93.88
2017-08-11T00:15:24.153Z,93.97
2017-08-11T00:16:04.562Z,93.88
2017-08-11T00:16:44.943Z,93.11
2017-08-11T00:17:25.369Z,93.3
2017-08-11T00:18:05.741Z,93.3
2017-08-11T00:18:46.231Z,93.49
2017-08-11T00:19:26.606Z,94.26
2017-08-11T00:20:06.991Z,93.21
2017-08-11T00:20:47.377Z,92.63
2017-08-11T00:21:27.835Z,93.11
2017-08-11T00:22:08.220Z,93.4
2017-08-11T00:22:48.613Z,93.4
2017-08-11T00:23:28.952Z,93.01
2017-08-11T00:24:09.395Z,92.82
2017-08-11T00:24:49.766Z,92.91
2017-08-11T00:25:33.153Z,92.72
2017-08-11T00:26:13.529Z,92.54
2017-08-11T00:26:53.943Z,92.91
2017-08-11T00:27:34.374Z,92.54
2017-08-11T00:28:14.720Z,92.72
2017-08-11T00:28:55.089Z,93.49
2017-08-11T00:29:35.536Z,92.82
2017-08-11T00:30:15.975Z,93.59
2017-08-11T00:30:56.427Z,93.4
2017-08-11T00:31:36.778Z,93.01
2017-08-11T00:32:17.233Z,92.72
2017-08-11T00:32:57.616Z,92.63
2017-08-11T00:33:38.067Z,92.54
2017-08-11T00:34:18.517Z,92.63
2017-08-11T00:34:58.912Z,93.4
2017-08-11T00:35:39.343Z,93.4
2017-08-11T00:36:19.752Z,93.3
2017-08-11T00:37:00.152Z,93.21
2017-08-11T00:37:40.587Z,92.63
2017-08-11T00:38:20.927Z,93.21
2017-08-11T00:39:01.464Z,93.3
2017-08-11T00:39:41.797Z,93.59
2017-08-11T00:40:22.186Z,93.68
2017-08-11T00:41:02.628Z,93.11
2017-08-11T00:41:42.982Z,93.59
2017-08-11T00:42:23.367Z,93.21
2017-08-11T00:43:03.793Z,92.91
2017-08-11T00:43:44.211Z,93.01
2017-08-11T00:44:24.597Z,93.4
2017-08-11T00:45:04.971Z,93.3
2017-08-11T00:45:45.357Z,92.82
2017-08-11T00:46:25.790Z,93.4
2017-08-11T00:47:06.272Z,93.3
2017-08-11T00:47:46.657Z,93.59
2017-08-11T00:48:27.104Z,92.54
2017-08-11T00:49:07.497Z,93.01
2017-08-11T00:49:47.917Z,93.59
2017-08-11T00:50:28.347Z,93.3
2017-08-11T00:51:08.812Z,93.21
2017-08-11T00:51:49.244Z,93.3
2017-08-11T00:52:29.664Z,93.49
2017-08-11T00:53:10.056Z,93.68
2017-08-11T00:53:50.485Z,93.21
2017-08-11T00:54:30.920Z,93.01
2017-08-11T00:55:11.375Z,93.3
2017-08-11T00:55:51.745Z,93.3
2017-08-11T00:56:32.162Z,93.3
2017-08-11T00:57:12.637Z,93.21
2017-08-11T00:57:53.026Z,93.4
2017-08-11T00:58:33.426Z,93.21
2017-08-11T00:59:13.817Z,93.68
2017-08-11T00:59:54.296Z,93.68
2017-08-11T01:04:26.599Z,93.01
2017-08-11T01:05:22.863Z,94.26
2017-08-11T01:06:22.266Z,92.54
2017-08-11T01:07:20.855Z,92.44
2017-08-11T01:08:16.754Z,93.59
2017-08-11T01:09:14.269Z,93.59
2017-08-11T01:10:09.030Z,92.54
2017-08-11T01:11:08.889Z,92.63
2017-08-11T01:12:03.398Z,92.82
2017-08-11T01:12:57.412Z,92.91
2017-08-11T01:13:58.044Z,92.44
2017-08-11T01:14:58.116Z,92.82
2017-08-11T01:15:56.816Z,92.72
2017-08-11T01:16:39.633Z,93.21
2017-08-11T01:17:21.469Z,92.54
2017-08-11T01:18:01.865Z,92.91
2017-08-11T01:18:47.166Z,93.3
2017-08-11T01:20:53.589Z,92.91
2017-08-11T01:21:34.055Z,93.4
2017-08-11T01:22:14.544Z,93.97
2017-08-11T01:22:54.912Z,93.59
2017-08-11T01:23:35.347Z,93.21
2017-08-11T01:24:15.758Z,93.59
2017-08-11T01:24:56.229Z,92.63
2017-08-11T01:25:36.592Z,92.82
2017-08-11T01:26:17.345Z,93.21
2017-08-11T01:26:57.695Z,92.72
2017-08-11T01:27:38.221Z,92.44
2017-08-11T01:28:18.574Z,92.82
2017-08-11T01:28:58.974Z,92.34
2017-08-11T01:29:39.385Z,92.82
2017-08-11T01:30:19.741Z,93.4
2017-08-11T01:31:00.361Z,92.54
2017-08-11T01:31:40.656Z,92.58
2017-08-11T01:32:21.069Z,92.68
2017-08-11T01:33:01.511Z,93.54
2017-08-11T01:33:41.946Z,93.44
2017-08-11T01:34:22.833Z,93.06
2017-08-11T01:35:04.598Z,93.63
2017-08-11T01:35:44.970Z,93.35
2017-08-11T01:36:25.374Z,93.44
2017-08-11T01:37:05.829Z,93.35
2017-08-11T01:37:46.235Z,93.54
2017-08-11T01:38:26.632Z,93.44
2017-08-11T01:39:07.110Z,93.44
2017-08-11T01:39:47.546Z,93.26
2017-08-11T01:40:27.942Z,93.49
2017-08-11T01:41:08.373Z,93.06
2017-08-11T01:41:48.776Z,93.59
2017-08-11T01:42:29.151Z,93.4
2017-08-11T01:43:09.573Z,93.35
2017-08-11T01:43:49.962Z,93.49
2017-08-11T01:44:30.374Z,94.12
2017-08-11T01:45:10.813Z,93.73
2017-08-11T01:45:51.253Z,93.93
2017-08-11T01:46:31.637Z,94.02
2017-08-11T01:47:12.025Z,94.02
2017-08-11T01:47:52.460Z,93.83
2017-08-11T01:48:32.868Z,93.93
2017-08-11T01:49:13.337Z,94.5
2017-08-11T01:49:53.772Z,93.93
2017-08-11T01:50:34.172Z,93.93
2017-08-11T01:51:14.584Z,93.21
2017-08-11T01:51:54.996Z,93.35
2017-08-11T01:52:35.372Z,94.07
2017-08-11T01:53:15.891Z,93.68
2017-08-11T01:53:56.629Z,92.44
2017-08-11T01:54:36.913Z,92.44
2017-08-11T01:55:17.507Z,92.54
2017-08-11T01:55:58.199Z,92.34
2017-08-11T01:56:38.680Z,91.86
2017-08-11T01:57:19.068Z,92.15
2017-08-11T01:57:59.487Z,92.24
2017-08-11T01:58:39.895Z,92.34
2017-08-11T01:59:20.370Z,92.63
2017-08-11T02:00:00.755Z,91.77
2017-08-11T02:00:41.242Z,92.05
2017-08-11T02:01:21.577Z,91.67
2017-08-11T02:02:02.127Z,92.15
2017-08-11T02:02:42.496Z,91.86
2017-08-11T02:03:22.952Z,91.67
2017-08-11T02:04:03.311Z,91.67
2017-08-11T02:04:43.721Z,92.05
2017-08-11T02:05:24.158Z,92.34
2017-08-11T02:06:04.838Z,91.77
2017-08-11T02:06:45.191Z,91.86
2017-08-11T02:07:25.631Z,91.67
2017-08-11T02:08:06.060Z,91.57
2017-08-11T02:08:46.616Z,91.67
2017-08-11T02:09:27.104Z,91.38
2017-08-11T02:10:07.539Z,91.96
2017-08-11T02:10:48.106Z,92.15
2017-08-11T02:11:28.517Z,91.86
2017-08-11T02:12:08.902Z,91
2017-08-11T02:12:49.348Z,91.09
2017-08-11T02:13:29.834Z,91.57
2017-08-11T02:14:10.135Z,91.38
2017-08-11T02:14:50.531Z,91.67
2017-08-11T02:15:30.986Z,91.19
2017-08-11T02:16:11.425Z,91
2017-08-11T02:16:52.217Z,90.9
2017-08-11T02:17:32.672Z,91.09
2017-08-11T02:18:13.096Z,91.09
2017-08-11T02:18:53.466Z,90.9
2017-08-11T02:19:33.984Z,91.19
2017-08-11T02:20:14.454Z,91.28
2017-08-11T02:20:54.895Z,91.09
2017-08-11T02:21:35.281Z,91.48
2017-08-11T02:22:16.905Z,91.67
2017-08-11T02:22:57.288Z,91.57
2017-08-11T02:23:38.232Z,90.71
2017-08-11T02:24:18.971Z,90.61
2017-08-11T02:25:01.192Z,91
2017-08-11T02:25:41.133Z,91
2017-08-11T02:26:21.566Z,91
2017-08-11T02:27:02.777Z,91.28
2017-08-11T02:27:43.045Z,91.28
2017-08-11T02:28:23.864Z,91.05
2017-08-11T02:29:05.937Z,91.38
2017-08-11T02:29:46.458Z,91.28
2017-08-11T02:30:27.294Z,91.28
2017-08-11T02:31:08.907Z,91.48
2017-08-11T02:31:49.013Z,91.05
2017-08-11T02:32:29.524Z,90.67
2017-08-11T02:33:11.593Z,91.53
2017-08-11T02:33:52.117Z,91.05
2017-08-11T02:34:32.600Z,91.82
2017-08-11T02:35:13.008Z,91.43
2017-08-11T02:35:53.390Z,91.43
2017-08-11T02:36:34.818Z,90.95
2017-08-11T02:37:16.080Z,90.86
2017-08-11T02:37:56.554Z,91.24
2017-08-11T02:38:37.372Z,91.34
2017-08-11T02:39:17.841Z,91.05
2017-08-11T02:39:58.691Z,90.86
2017-08-11T02:40:39.095Z,91.86
2017-08-11T02:41:22.271Z,91.43
2017-08-11T02:42:02.721Z,91.48
2017-08-11T02:42:46.064Z,91.43
2017-08-11T02:43:26.472Z,91.24
2017-08-11T02:44:06.865Z,91.09
2017-08-11T02:44:47.369Z,90.57
2017-08-11T02:45:27.783Z,91.05
2017-08-11T02:46:09.842Z,92.15
2017-08-11T02:46:50.567Z,91.67
2017-08-11T02:47:31.010Z,91
2017-08-11T02:48:11.452Z,90.9
2017-08-11T02:48:51.890Z,91.19
2017-08-11T02:49:32.317Z,91.63
2017-08-11T02:50:12.906Z,91.34
2017-08-11T02:50:53.393Z,91.53
2017-08-11T02:51:34.214Z,91.48
2017-08-11T02:52:16.173Z,90.76
2017-08-11T02:52:56.854Z,91.28
2017-08-11T02:53:38.865Z,90.71
2017-08-11T02:54:19.278Z,91.43
2017-08-11T02:54:59.740Z,91.19
2017-08-11T02:55:40.203Z,91.24
2017-08-11T02:56:21.462Z,90.81
2017-08-11T02:57:01.872Z,90.9
2017-08-11T02:57:42.564Z,90.9
2017-08-11T02:58:23.059Z,91
2017-08-11T02:59:04.082Z,91.14
2017-08-11T02:59:44.450Z,91.53
2017-08-11T03:00:25.178Z,91.53
2017-08-11T03:01:06.922Z,91.57
2017-08-11T03:01:47.201Z,91.24
2017-08-11T03:02:27.586Z,91.38
2017-08-11T03:03:07.988Z,91.67
2017-08-11T03:03:48.447Z,91.43
2017-08-11T03:04:28.886Z,91.09
2017-08-11T03:05:10.095Z,90.95
2017-08-11T03:05:50.892Z,91.05
2017-08-11T03:06:31.318Z,91.14
2017-08-11T03:07:11.654Z,91.63
2017-08-11T03:07:52.470Z,91.63
2017-08-11T03:08:34.156Z,91.43
2017-08-11T03:09:14.413Z,91.63
2017-08-11T03:09:54.922Z,91.53
2017-08-11T03:10:35.402Z,91.53
2017-08-11T03:11:18.814Z,91.82
2017-08-11T03:11:59.392Z,91.14
2017-08-11T03:12:39.978Z,91.53
2017-08-11T03:13:26.836Z,91.34
2017-08-11T03:14:07.847Z,91.34
2017-08-11T03:14:49.039Z,91.53
2017-08-11T03:15:29.390Z,91.43
2017-08-11T03:16:10.652Z,91.05
2017-08-11T03:16:51.460Z,91.05
2017-08-11T03:17:31.654Z,90.67
2017-08-11T03:18:12.809Z,91.14
2017-08-11T03:18:53.134Z,90.95
2017-08-11T03:19:34.320Z,91.72
2017-08-11T03:20:14.446Z,90.76
2017-08-11T03:20:55.041Z,90.57
2017-08-11T03:21:35.473Z,90.67
2017-08-11T03:22:15.939Z,90.86
2017-08-11T03:22:56.508Z,90.95
2017-08-11T03:23:37.035Z,90.76
2017-08-11T03:24:17.869Z,91.05
2017-08-11T03:24:58.799Z,91.05
2017-08-11T03:25:39.322Z,91.05
2017-08-11T03:26:19.684Z,90.67
2017-08-11T03:27:00.081Z,91.63
2017-08-11T03:27:40.616Z,90.95
2017-08-11T03:28:20.979Z,91.63
2017-08-11T03:29:01.865Z,91.24
2017-08-11T03:29:43.750Z,90.76
2017-08-11T03:30:24.446Z,91.05
2017-08-11T03:31:05.094Z,91.34
2017-08-11T03:31:45.361Z,91.14
2017-08-11T03:32:26.006Z,91.14
2017-08-11T03:33:06.334Z,91.14
2017-08-11T03:33:46.762Z,91.05
2017-08-11T03:34:27.478Z,91.24
2017-08-11T03:35:08.288Z,91.05
2017-08-11T03:35:48.641Z,91.34
2017-08-11T03:36:29.049Z,90.76
2017-08-11T03:37:09.775Z,90.76
2017-08-11T03:37:50.127Z,90.76
2017-08-11T03:38:30.614Z,90.33
2017-08-11T03:39:10.978Z,90.19
2017-08-11T03:39:53.851Z,90.86
2017-08-11T03:40:34.372Z,90.81
2017-08-11T03:41:14.813Z,90.38
2017-08-11T03:41:55.178Z,90.61
2017-08-11T03:42:35.730Z,90.86
2017-08-11T03:43:16.178Z,90.52
2017-08-11T03:43:56.641Z,91
2017-08-11T03:44:37.731Z,90.04
2017-08-11T03:46:27.161Z,90.04
2017-08-11T03:47:10.935Z,91
2017-08-11T03:47:51.510Z,90.9
2017-08-11T03:48:31.893Z,89.85
2017-08-11T03:49:13.093Z,89.65
2017-08-11T03:49:53.665Z,89.94
2017-08-11T03:50:34.451Z,89.75
2017-08-11T03:51:14.882Z,90.04
2017-08-11T03:51:55.299Z,90.23
2017-08-11T03:52:35.687Z,90.04
2017-08-11T03:53:17.994Z,90.04
2017-08-11T03:53:58.406Z,90.38
2017-08-11T03:54:38.906Z,90.14
2017-08-11T03:55:20.136Z,90.42
2017-08-11T03:56:00.820Z,90.04
2017-08-11T03:56:41.242Z,90.42
2017-08-11T03:57:21.799Z,90.33
2017-08-11T03:58:03.386Z,89.94
2017-08-11T03:58:43.727Z,89.94
2017-08-11T03:59:24.162Z,90.33
2017-08-11T04:00:04.397Z,90.04
2017-08-11T04:00:45.095Z,90.14
2017-08-11T04:01:26.619Z,90.42
2017-08-11T04:02:06.671Z,89.85
2017-08-11T04:02:47.575Z,90.42
2017-08-11T04:03:29.542Z,89.75
2017-08-11T04:04:09.772Z,90.42
2017-08-11T04:04:50.354Z,90.42
2017-08-11T04:05:30.752Z,89.94
2017-08-11T04:06:11.111Z,89.47
2017-08-11T04:06:51.557Z,90.33
2017-08-11T04:07:32.055Z,90.14
2017-08-11T04:08:12.410Z,90.42
2017-08-11T04:08:52.968Z,90.33
2017-08-11T04:09:33.576Z,89.94
2017-08-11T04:10:13.909Z,90.33
2017-08-11T04:11:01.871Z,90.42
2017-08-11T04:11:42.130Z,90.33
2017-08-11T04:12:23.010Z,90.04
2017-08-11T04:13:03.439Z,90.14
2017-08-11T04:13:44.011Z,89.75
2017-08-11T04:14:24.919Z,90.14
2017-08-11T04:15:05.330Z,90.23
2017-08-11T04:20:06.939Z,89.47
2017-08-11T04:20:49.717Z,89.75
2017-08-11T04:21:30.608Z,89.56
2017-08-11T04:22:11.049Z,90.04
2017-08-11T04:22:51.705Z,90.04
2017-08-11T04:23:32.979Z,90.14
2017-08-11T04:24:14.121Z,89.85
2017-08-11T04:24:54.332Z,89.65
2017-08-11T04:25:35.005Z,89.65
2017-08-11T04:26:15.647Z,90.14
2017-08-11T04:26:57.257Z,89.37
2017-08-11T04:27:37.781Z,89.56
2017-08-11T04:28:18.249Z,89.37
2017-08-11T04:29:01.070Z,90.23
2017-08-11T04:29:41.414Z,89.18
2017-08-11T04:30:22.886Z,89.56
2017-08-11T04:31:04.360Z,89.94
2017-08-11T04:31:44.997Z,89.75
2017-08-11T04:32:25.790Z,90.52
2017-08-11T04:33:06.249Z,90.14
2017-08-11T04:33:47.756Z,89.94
2017-08-11T04:34:28.770Z,90.04
2017-08-11T04:35:12.416Z,90.23
2017-08-11T04:35:54.423Z,90.23
2017-08-11T04:36:34.957Z,90.42
2017-08-11T04:37:14.496Z,90.14
2017-08-11T04:37:55.074Z,90.42
2017-08-11T04:38:35.977Z,89.85
2017-08-11T04:39:18.876Z,89.18
2017-08-11T04:39:59.254Z,89.56
2017-08-11T04:40:40.335Z,89.47
2017-08-11T04:41:21.276Z,89.18
2017-08-11T04:42:04.086Z,89.27
2017-08-11T04:42:44.564Z,89.75
2017-08-11T04:43:25.617Z,90.33
2017-08-11T04:44:06.108Z,89.65
2017-08-11T04:44:46.490Z,89.47
2017-08-11T04:45:27.405Z,90.04
2017-08-11T04:46:07.763Z,90.14
2017-08-11T04:46:48.207Z,89.56
2017-08-11T04:47:30.415Z,89.75
2017-08-11T04:48:11.096Z,90.52
2017-08-11T04:48:54.792Z,90.14
2017-08-11T04:49:36.347Z,89.65
2017-08-11T04:50:16.822Z,90.14
2017-08-11T04:50:57.223Z,89.75
2017-08-11T04:51:37.671Z,89.56
2017-08-11T04:52:18.547Z,89.56
2017-08-11T04:54:39.513Z,90.14
2017-08-11T04:55:39.703Z,89.65
2017-08-11T04:56:34.635Z,89.37
2017-08-11T04:57:29.958Z,89.65
2017-08-11T04:58:17.405Z,90.04
2017-08-11T04:58:58.269Z,90.23
2017-08-11T04:59:40.072Z,90.23
2017-08-11T05:00:21.469Z,89.56
2017-08-11T05:01:01.764Z,89.27
2017-08-11T05:01:42.922Z,89.56
2017-08-11T05:02:23.857Z,89.94
2017-08-11T05:03:04.690Z,90.42
2017-08-11T05:03:45.252Z,90.04
2017-08-11T05:04:25.813Z,89.65
2017-08-11T05:05:06.753Z,89.65
2017-08-11T05:05:47.421Z,89.75
2017-08-11T05:06:28.989Z,89.18
2017-08-11T05:07:10.182Z,89.27
2017-08-11T05:07:53.293Z,89.56
2017-08-11T05:08:33.744Z,89.37
2017-08-11T05:09:14.527Z,89.75
2017-08-11T05:09:57.898Z,89.27
2017-08-11T05:10:38.157Z,89.08
2017-08-11T05:11:18.822Z,89.37
2017-08-11T05:11:59.890Z,89.08
2017-08-11T05:12:40.194Z,89.27
2017-08-11T05:13:20.639Z,88.7
2017-08-11T05:14:01.137Z,89.27
2017-08-11T05:14:44.339Z,88.98
2017-08-11T05:15:25.089Z,88.98
2017-08-11T05:16:07.454Z,89.56
2017-08-11T05:16:48.147Z,89.94
2017-08-11T05:17:28.589Z,89.56
2017-08-11T05:18:09.754Z,89.37
2017-08-11T05:18:50.072Z,90.04
2017-08-11T05:19:30.503Z,90.14
2017-08-11T05:20:11.057Z,89.56
2017-08-11T05:20:51.418Z,89.56
2017-08-11T05:21:33.119Z,89.27
2017-08-11T05:22:13.425Z,89.85
2017-08-11T05:22:54.002Z,89.56
2017-08-11T05:23:34.558Z,89.47
2017-08-11T05:24:15.077Z,89.65
2017-08-11T05:24:57.522Z,89.9
2017-08-11T05:25:39.156Z,90
2017-08-11T05:26:21.587Z,89.94
2017-08-11T05:27:02.150Z,90.14
2017-08-11T05:27:43.260Z,89.85
2017-08-11T05:28:23.867Z,90.14
2017-08-11T05:29:12.288Z,89.47
2017-08-11T05:29:53.509Z,89.94
2017-08-11T05:30:34.929Z,89.85
2017-08-11T05:31:16.289Z,89.75
2017-08-11T05:31:57.117Z,90.09
2017-08-11T05:32:39.629Z,89.75
2017-08-11T05:33:21.713Z,90.23
2017-08-11T05:34:02.541Z,90.14
2017-08-11T05:34:43.728Z,90.86
2017-08-11T05:35:25.621Z,90.81
2017-08-11T05:36:06.191Z,90.38
2017-08-11T05:36:47.878Z,90.71
2017-08-11T05:37:57.317Z,90.86
2017-08-11T05:38:54.115Z,91.05
2017-08-11T05:40:06.373Z,90.9
2017-08-11T05:42:49.725Z,91.09
2017-08-11T05:43:26.532Z,90.71
2017-08-11T05:44:07.252Z,90.61
2017-08-11T05:44:47.754Z,90.71
2017-08-11T05:45:28.235Z,90.81
2017-08-11T05:46:08.921Z,91.38
2017-08-11T05:46:49.559Z,91.09
2017-08-11T05:51:04.072Z,91.82
2017-08-11T05:52:00.351Z,92.3
2017-08-11T05:52:59.950Z,92.77
2017-08-11T05:54:02.574Z,92.77
2017-08-11T05:55:08.712Z,92.58
2017-08-11T05:55:48.681Z,92.58
2017-08-11T05:56:29.149Z,93.26
2017-08-11T05:57:09.526Z,93.93
2017-08-11T05:57:49.937Z,93.73
2017-08-11T05:58:30.306Z,93.54
2017-08-11T05:59:10.705Z,94.02
2017-08-11T05:59:51.211Z,94.79
2017-08-11T06:00:31.825Z,94.69
2017-08-11T06:01:12.319Z,94.93
2017-08-11T06:01:52.857Z,95.6
2017-08-11T06:02:33.237Z,95.46
2017-08-11T06:03:14.024Z,94.93
2017-08-11T06:03:54.202Z,95.22
2017-08-11T06:04:35.146Z,95.22
2017-08-11T06:05:16.516Z,95.51
2017-08-11T06:05:56.985Z,96.08
2017-08-11T06:06:37.446Z,95.31
2017-08-11T06:07:18.368Z,95.6
2017-08-11T06:07:58.747Z,95.98
2017-08-11T06:08:39.155Z,95.6
2017-08-11T06:09:19.600Z,96.75
2017-08-11T06:10:00.044Z,97.33
2017-08-11T06:10:40.519Z,97.14
2017-08-11T06:11:20.985Z,97.33
2017-08-11T06:12:01.365Z,97.33
2017-08-11T06:12:41.787Z,96.75
2017-08-11T06:13:22.210Z,96.94
2017-08-11T06:14:02.620Z,97.33
2017-08-11T06:14:43.117Z,97.52
2017-08-11T06:15:23.650Z,97.52
2017-08-11T06:16:04.049Z,97.52
2017-08-11T06:16:44.546Z,97.42
2017-08-11T06:17:24.978Z,97.8
2017-08-11T06:18:05.421Z,97.04
2017-08-11T06:18:49.106Z,97.52
2017-08-11T06:19:29.499Z,96.84
2017-08-11T06:20:09.834Z,96.66
2017-08-11T06:20:50.400Z,96.56
2017-08-11T06:21:30.802Z,96.75
2017-08-11T06:22:11.279Z,96.8
2017-08-11T06:22:51.832Z,97.09
2017-08-11T06:23:32.274Z,96.89
2017-08-11T06:24:12.740Z,95.84
2017-08-11T06:24:53.262Z,96.32
2017-08-11T06:25:33.719Z,96.8
2017-08-11T06:26:14.206Z,96.75
2017-08-11T06:26:54.642Z,96.56
2017-08-11T06:27:35.021Z,96.56
2017-08-11T06:28:15.463Z,96.37
2017-08-11T06:28:55.976Z,96.56
2017-08-11T06:29:36.455Z,96.84
2017-08-11T06:30:16.984Z,96.47
2017-08-11T06:30:57.420Z,96.32
2017-08-11T06:31:37.971Z,96.8
2017-08-11T06:32:19.360Z,96.08
2017-08-11T06:33:00.237Z,96.51
2017-08-11T06:33:42.575Z,96.84
2017-08-11T06:34:23.281Z,97.33
2017-08-11T06:35:03.803Z,96.94
2017-08-11T06:35:44.163Z,97.18
2017-08-11T06:36:24.666Z,96.66
2017-08-11T06:37:05.062Z,97.04
2017-08-11T06:37:45.586Z,96.13
2017-08-11T06:38:26.240Z,96.89
2017-08-11T06:39:06.488Z,97.28
2017-08-11T06:39:47.150Z,96.47
2017-08-11T06:40:27.586Z,96.89
2017-08-11T06:41:08.004Z,96.7
2017-08-11T06:41:48.392Z,96.75
2017-08-11T06:42:28.916Z,96.7
2017-08-11T06:43:09.574Z,96.94
2017-08-11T06:43:49.730Z,96.27
2017-08-11T06:44:30.211Z,96.75
2017-08-11T06:45:10.651Z,96.75
2017-08-11T06:45:51.815Z,96.75
2017-08-11T06:46:32.267Z,96.56
2017-08-11T06:47:12.727Z,96.84
2017-08-11T06:47:53.070Z,97.04
2017-08-11T06:48:33.493Z,96.75
2017-08-11T06:49:13.887Z,97.04
2017-08-11T06:49:54.421Z,97.61
2017-08-11T06:50:34.735Z,98
2017-08-11T06:51:15.161Z,97.9
2017-08-11T06:51:55.636Z,97.23
2017-08-11T06:52:37.034Z,97.61
2017-08-11T06:53:17.355Z,97.71
2017-08-11T06:53:57.821Z,97.52
2017-08-11T06:54:39.678Z,97.71
2017-08-11T06:55:20.095Z,97.14
2017-08-11T06:56:00.749Z,97.9
2017-08-11T06:56:41.287Z,97.8
2017-08-11T06:57:21.696Z,97.42
2017-08-11T06:58:02.162Z,97.71
2017-08-11T06:58:42.654Z,97.42
2017-08-11T06:59:23.045Z,97.38
2017-08-11T07:00:03.435Z,97.61
2017-08-11T07:00:43.808Z,97.38
2017-08-11T07:01:24.231Z,97.42
2017-08-11T07:02:04.617Z,97.85
2017-08-11T07:02:45.071Z,97.85
2017-08-11T07:03:25.440Z,98.14
2017-08-11T07:04:05.878Z,97.18
2017-08-11T07:04:46.282Z,96.99
2017-08-11T07:05:26.660Z,96.8
2017-08-11T07:06:07.085Z,96.32
2017-08-11T07:06:47.452Z,96.13
2017-08-11T07:07:27.893Z,96.32
2017-08-11T07:08:08.328Z,96.32
2017-08-11T07:08:48.723Z,96.22
2017-08-11T07:09:29.116Z,96.61
2017-08-11T07:10:09.587Z,96.99
2017-08-11T07:10:50.054Z,97.09
2017-08-11T07:11:30.465Z,97.18
2017-08-11T07:12:10.848Z,96.8
2017-08-11T07:12:51.264Z,97.66
2017-08-11T07:13:31.648Z,97.85
2017-08-11T07:14:12.099Z,97.85
2017-08-11T07:14:52.490Z,96.8
2017-08-11T07:15:32.878Z,96.66
2017-08-11T07:16:13.355Z,95.7
2017-08-11T07:16:53.704Z,94.93
2017-08-11T07:17:34.135Z,95.51
2017-08-11T07:18:14.595Z,95.12
2017-08-11T07:18:54.965Z,94.45
2017-08-11T07:19:35.374Z,94.74
2017-08-11T07:20:15.787Z,95.12
2017-08-11T07:20:56.172Z,93.68
2017-08-11T07:21:36.669Z,94.07
2017-08-11T07:22:17.137Z,94.64
2017-08-11T07:22:57.579Z,94.07
2017-08-11T07:24:45.331Z,93.01
2017-08-11T07:25:25.753Z,93.25
2017-08-11T07:26:06.192Z,93.54
2017-08-11T07:26:46.553Z,93.44
2017-08-11T07:27:26.919Z,93.73
2017-08-11T07:28:07.336Z,93.44
2017-08-11T07:28:47.719Z,94.31
2017-08-11T07:29:28.153Z,94.69
2017-08-11T07:31:42.517Z,93.35
2017-08-11T07:34:03.110Z,93.15
2017-08-11T07:34:43.438Z,93.54
2017-08-11T07:35:23.898Z,92.96
2017-08-11T07:36:04.439Z,92.68
2017-08-11T07:36:45.030Z,92.96
2017-08-11T07:37:25.593Z,92.96
2017-08-11T07:38:06.000Z,92.1
2017-08-11T07:38:46.458Z,92
2017-08-11T07:39:26.845Z,92.63
2017-08-11T07:41:41.391Z,92.19
2017-08-11T07:42:21.171Z,92.58
2017-08-11T07:44:35.685Z,91.42
2017-08-11T07:45:16.021Z,92.39
2017-08-11T07:45:56.432Z,92.58
2017-08-11T07:46:37.141Z,91.91
2017-08-11T07:47:17.388Z,92.19
2017-08-11T07:47:58.514Z,92.1
2017-08-11T07:48:39.542Z,91.24
2017-08-11T07:49:20.627Z,91.52
2017-08-11T07:50:00.954Z,92.39
2017-08-11T07:50:41.402Z,91.91
2017-08-11T07:51:21.862Z,92.48
2017-08-11T07:52:02.256Z,92.19
2017-08-11T07:53:56.445Z,91.91
2017-08-11T07:54:49.986Z,91.24
2017-08-11T07:55:30.508Z,91.52
2017-08-11T07:56:11.040Z,91.14
2017-08-11T07:56:51.359Z,91.57
2017-08-11T07:57:31.788Z,91.76
2017-08-11T07:58:12.232Z,90.8
2017-08-11T07:58:52.569Z,90.42
2017-08-11T07:59:32.994Z,89.65
2017-08-11T08:01:53.466Z,89.5
2017-08-11T08:02:33.816Z,89.79
2017-08-11T08:03:14.327Z,88.73
2017-08-11T08:03:54.624Z,89.22
2017-08-11T08:04:35.095Z,88.31
2017-08-11T08:05:16.093Z,89.36
2017-08-11T08:05:56.879Z,88.93
2017-08-11T08:06:37.347Z,89.98
2017-08-11T08:07:17.790Z,89.36
2017-08-11T08:07:58.071Z,89.22
2017-08-11T08:08:38.622Z,88.83
2017-08-11T08:09:18.909Z,88.45
2017-08-11T08:10:01.021Z,88.54
2017-08-11T08:10:41.499Z,88.25
2017-08-11T08:11:21.944Z,88.06
2017-08-11T08:12:02.410Z,88.54
2017-08-11T08:12:42.794Z,88.54
2017-08-11T08:13:23.248Z,88.73
2017-08-11T08:14:03.722Z,88.54
2017-08-11T08:14:44.159Z,88.88
2017-08-11T08:15:24.612Z,90.22
2017-08-11T08:16:05.017Z,89.65
2017-08-11T08:16:45.574Z,89.17
2017-08-11T08:17:25.880Z,89.65
2017-08-11T08:23:38.699Z,88.64
2017-08-11T08:25:36.217Z,88.73
2017-08-11T08:26:16.287Z,88.73
2017-08-11T08:26:56.655Z,88.54
2017-08-11T08:27:37.031Z,87.96
2017-08-11T08:28:17.445Z,88.25
2017-08-11T08:28:57.859Z,87.68
2017-08-11T08:29:38.240Z,87.87
2017-08-11T08:30:19.755Z,87.68
2017-08-11T08:31:00.228Z,87.96
2017-08-11T08:31:40.598Z,87.87
2017-08-11T08:32:21.091Z,87.96
2017-08-11T08:33:01.549Z,87.87
2017-08-11T08:33:41.958Z,87.77
2017-08-11T08:34:22.311Z,88.01
2017-08-11T08:35:02.747Z,87.53
2017-08-11T08:35:43.142Z,86.28
2017-08-11T08:36:23.537Z,86.95
2017-08-11T08:37:03.957Z,86.28
2017-08-11T08:37:44.394Z,85.89
2017-08-11T08:38:24.833Z,85.61
2017-08-11T08:39:05.508Z,85.51
2017-08-11T08:39:47.404Z,85.51
2017-08-11T08:40:28.842Z,85.61
2017-08-11T08:41:09.237Z,86.09
2017-08-11T08:41:49.817Z,85.89
2017-08-11T08:42:30.235Z,86.28
2017-08-11T08:43:11.119Z,86.18
2017-08-11T08:43:53.211Z,86.47
2017-08-11T08:44:34.155Z,86.38
2017-08-11T08:45:14.527Z,86.38
2017-08-11T08:45:55.911Z,86.38
2017-08-11T08:46:36.354Z,86.57
2017-08-11T08:47:17.150Z,87.05
2017-08-11T08:47:57.609Z,87.15
2017-08-11T08:48:37.970Z,86.18
2017-08-11T08:49:18.456Z,86.47
2017-08-11T08:49:58.915Z,85.61
2017-08-11T08:50:39.505Z,85.99
2017-08-11T08:51:20.003Z,85.99
2017-08-11T08:52:00.371Z,85.32
2017-08-11T08:52:40.762Z,84.69
2017-08-11T08:53:21.175Z,84.88
2017-08-11T08:54:01.565Z,84.78
2017-08-11T08:54:42.963Z,84.98
2017-08-11T08:55:23.464Z,84.59
2017-08-11T08:56:03.882Z,84.01
2017-08-11T08:56:44.254Z,84.16
2017-08-11T08:57:25.483Z,83.67
2017-08-11T08:58:05.194Z,84.44
2017-08-11T08:58:46.489Z,83.86
2017-08-11T08:59:26.732Z,83.29
2017-08-11T09:00:07.483Z,83.29
2017-08-11T09:00:48.190Z,83.39
2017-08-11T09:01:28.538Z,83.19
2017-08-11T09:02:09.601Z,82.71
2017-08-11T09:02:49.439Z,83.19
2017-08-11T09:04:38.877Z,83.09
2017-08-11T09:05:19.318Z,84.06
2017-08-11T09:05:59.662Z,83.77
2017-08-11T09:06:40.108Z,83.39
2017-08-11T09:07:20.555Z,83.33
2017-08-11T09:08:00.945Z,83.04
2017-08-11T09:08:41.411Z,82.14
2017-08-11T09:09:21.750Z,83
2017-08-11T09:10:02.121Z,83.19
2017-08-11T09:10:42.611Z,83.96
2017-08-11T09:11:23.066Z,83.67
2017-08-11T09:12:03.500Z,83.29
2017-08-11T09:12:43.998Z,83.19
2017-08-11T09:13:24.429Z,82.81
2017-08-11T09:14:04.807Z,82.71
2017-08-11T09:14:45.392Z,82.52
2017-08-11T09:15:25.876Z,82.14
2017-08-11T09:16:06.229Z,82.23
2017-08-11T09:16:46.692Z,81.75
2017-08-11T09:17:27.363Z,82.14
2017-08-11T09:18:07.772Z,82.9
2017-08-11T09:18:48.286Z,81.94
2017-08-11T09:19:28.674Z,82.81
2017-08-11T09:20:09.130Z,82.57
2017-08-11T09:20:49.603Z,82.76
2017-08-11T09:21:30.227Z,83.34
2017-08-11T09:22:10.564Z,82.96
2017-08-11T09:22:51.152Z,83.25
2017-08-11T09:23:31.600Z,83.06
2017-08-11T09:24:12.115Z,83.53
2017-08-11T09:24:52.644Z,83.53
2017-08-11T09:25:33.312Z,83.73
2017-08-11T09:26:13.703Z,83.92
2017-08-11T09:26:55.208Z,83.83
2017-08-11T09:27:35.795Z,84.21
2017-08-11T09:28:16.214Z,84.3
2017-08-11T09:28:56.623Z,84.36
2017-08-11T09:29:37.580Z,84.69